Time;durP1;ratioP1;P1;durP2;ratioP2;P2;SDS_P1;SDS_P2;PMS_P1;PMS_P2;Temp;Humidity;BMP_temperature;BMP_pressure;BME280_temperature;BME280_humidity;BME280_pressure;Samples;Min_cycle;Max_cycle;Signal;HPM_P1;HPM_P2
2022/04/15 00:01:33;;;;;;;9.43;5.40;;;9.60;99.90;;;;;;5094324;28;20476;-77
2022/04/15 00:04:03;;;;;;;8.00;5.20;;;9.50;99.90;;;;;;5089248;28;20946;-77
2022/04/15 00:06:32;;;;;;;8.10;6.40;;;9.50;99.90;;;;;;5075449;28;20492;-77
2022/04/15 00:09:01;;;;;;;8.80;5.33;;;9.50;99.90;;;;;;5073523;28;20453;-77
2022/04/15 00:11:31;;;;;;;8.00;5.13;;;9.40;99.90;;;;;;5075201;28;20933;-77
2022/04/15 00:14:00;;;;;;;8.00;5.67;;;9.50;99.90;;;;;;5094942;28;20643;-77
2022/04/15 00:16:28;;;;;;;9.50;5.63;;;9.40;99.90;;;;;;5092229;28;20881;-77
2022/04/15 00:18:56;;;;;;;8.70;5.87;;;9.40;99.90;;;;;;5074151;28;20445;-77
2022/04/15 00:21:24;;;;;;;9.40;5.87;;;9.40;99.90;;;;;;5073606;28;20449;-77
2022/04/15 00:23:56;;;;;;;9.63;5.63;;;9.40;99.90;;;;;;5073575;28;20441;-77
2022/04/15 00:26:24;;;;;;;10.67;5.63;;;9.40;99.90;;;;;;5079112;28;20473;-77
2022/04/15 00:28:54;;;;;;;10.93;6.53;;;9.40;99.90;;;;;;5079556;28;20459;-77
2022/04/15 00:31:22;;;;;;;9.37;5.30;;;9.40;99.90;;;;;;5095435;28;20902;-78
2022/04/15 00:33:50;;;;;;;7.77;5.23;;;9.40;99.90;;;;;;5096790;28;20521;-78
2022/04/15 00:36:18;;;;;;;8.63;5.43;;;9.40;99.90;;;;;;5095309;28;20495;-78
2022/04/15 00:38:46;;;;;;;8.77;5.90;;;9.40;99.90;;;;;;5094786;28;20994;-78
2022/04/15 00:41:16;;;;;;;8.57;6.23;;;9.40;99.90;;;;;;5096454;28;20436;-78
2022/04/15 00:43:44;;;;;;;8.83;5.40;;;9.40;99.90;;;;;;5097073;28;20444;-78
2022/04/15 00:46:14;;;;;;;8.27;5.73;;;9.40;99.90;;;;;;5091125;28;20499;-78
2022/04/15 00:48:42;;;;;;;9.47;5.80;;;9.40;99.90;;;;;;5086099;28;20499;-78
2022/04/15 00:51:11;;;;;;;9.20;5.50;;;9.40;99.90;;;;;;5085536;28;20516;-78
2022/04/15 00:53:41;;;;;;;9.73;5.47;;;9.40;99.90;;;;;;5102130;28;21029;-79
2022/04/15 00:56:10;;;;;;;7.70;5.17;;;9.40;99.90;;;;;;5098629;28;20608;-78
2022/04/15 00:58:40;;;;;;;8.60;4.90;;;9.40;99.90;;;;;;5097611;28;20432;-78
2022/04/15 01:01:09;;;;;;;8.20;5.00;;;9.40;99.90;;;;;;5095023;28;20440;-78
2022/04/15 01:03:40;;;;;;;13.83;6.17;;;9.40;99.90;;;;;;5097184;28;20443;-78
2022/04/15 01:06:16;;;;;;;8.10;5.17;;;9.40;99.90;;;;;;5094778;28;20467;-78
2022/04/15 01:08:45;;;;;;;8.40;4.87;;;9.40;99.90;;;;;;5094485;28;20436;-78
2022/04/15 01:11:17;;;;;;;8.43;5.80;;;9.40;99.90;;;;;;5094209;28;20456;-78
2022/04/15 01:13:47;;;;;;;8.00;5.53;;;9.40;99.90;;;;;;5078606;28;20468;-78
2022/04/15 01:16:15;;;;;;;8.20;5.60;;;9.40;99.90;;;;;;5083779;28;20509;-78
2022/04/15 01:18:45;;;;;;;9.50;5.83;;;9.40;99.90;;;;;;5094572;28;20451;-78
2022/04/15 01:21:15;;;;;;;11.50;6.47;;;9.40;99.90;;;;;;5095124;28;20443;-78
2022/04/15 01:23:45;;;;;;;9.83;6.50;;;9.40;99.90;;;;;;5096091;28;20792;-78
2022/04/15 01:26:17;;;;;;;10.23;6.73;;;9.40;99.90;;;;;;5094368;28;20464;-78
2022/04/15 01:28:45;;;;;;;9.00;6.43;;;9.40;99.90;;;;;;5094446;28;20918;-78
2022/04/15 01:31:13;;;;;;;10.30;6.63;;;9.40;99.90;;;;;;5093329;28;20504;-78
2022/04/15 01:33:42;;;;;;;9.70;6.80;;;9.40;99.90;;;;;;5095437;28;20537;-78
2022/04/15 01:36:11;;;;;;;9.50;6.90;;;9.30;99.90;;;;;;5075758;28;20925;-77
2022/04/15 01:38:40;;;;;;;11.37;7.50;;;9.30;99.90;;;;;;5072298;28;20445;-77
2022/04/15 01:41:09;;;;;;;10.80;7.37;;;9.30;99.90;;;;;;5073668;28;20438;-77
2022/04/15 01:43:38;;;;;;;10.03;7.07;;;9.30;99.90;;;;;;5072413;28;20445;-77
2022/04/15 01:46:09;;;;;;;11.10;7.87;;;9.30;99.90;;;;;;5072279;28;20810;-77
2022/04/15 01:48:37;;;;;;;11.07;8.47;;;9.30;99.90;;;;;;5072348;28;20446;-77
2022/04/15 01:51:05;;;;;;;12.03;7.90;;;9.30;99.90;;;;;;5088265;28;20803;-77
2022/04/15 01:53:34;;;;;;;11.33;8.43;;;9.30;99.90;;;;;;5092354;28;20452;-77
2022/04/15 01:56:02;;;;;;;10.50;8.03;;;9.30;99.90;;;;;;5093085;28;20455;-78
2022/04/15 01:58:31;;;;;;;11.53;8.70;;;9.30;99.90;;;;;;5095285;28;20423;-78
2022/04/15 02:01:00;;;;;;;13.07;9.17;;;9.30;99.90;;;;;;5079405;28;20445;-78
2022/04/15 02:03:28;;;;;;;15.27;11.73;;;9.30;99.90;;;;;;5053065;28;20442;-78
2022/04/15 02:05:56;;;;;;;13.97;11.90;;;9.30;99.90;;;;;;5085205;28;20475;-77
2022/04/15 02:08:25;;;;;;;14.53;11.50;;;9.30;99.90;;;;;;5092154;28;20455;-77
2022/04/15 02:10:53;;;;;;;15.07;11.37;;;9.20;99.90;;;;;;5093971;28;20497;-77
2022/04/15 02:13:21;;;;;;;16.37;12.77;;;9.20;99.90;;;;;;5092446;28;20482;-77
2022/04/15 02:15:51;;;;;;;14.70;11.53;;;9.30;99.90;;;;;;5092854;28;20471;-77
2022/04/15 02:18:19;;;;;;;15.83;11.37;;;9.20;99.90;;;;;;5096341;28;20520;-77
2022/04/15 02:20:53;;;;;;;13.83;10.20;;;9.20;99.90;;;;;;5083930;28;20457;-77
2022/04/15 02:23:21;;;;;;;14.03;10.10;;;9.20;99.90;;;;;;5074578;28;21144;-77
2022/04/15 02:25:49;;;;;;;11.97;9.70;;;9.20;99.90;;;;;;5090564;28;20445;-76
2022/04/15 02:28:17;;;;;;;11.00;9.20;;;9.20;99.90;;;;;;5079383;28;20467;-77
2022/04/15 02:30:47;;;;;;;11.57;7.30;;;9.10;99.90;;;;;;5087034;28;20464;-77
2022/04/15 02:33:17;;;;;;;9.90;6.80;;;9.10;99.90;;;;;;5079155;28;20445;-77
2022/04/15 02:35:45;;;;;;;9.07;6.47;;;9.10;99.90;;;;;;5087778;28;20471;-77
2022/04/15 02:38:13;;;;;;;9.90;6.80;;;9.00;99.90;;;;;;5095314;28;20486;-77
2022/04/15 02:40:41;;;;;;;10.30;7.07;;;9.00;99.90;;;;;;5098831;28;20450;-77
2022/04/15 02:43:11;;;;;;;10.00;7.33;;;8.90;99.90;;;;;;5098116;28;20513;-77
2022/04/15 02:45:39;;;;;;;9.43;7.20;;;8.90;99.90;;;;;;5098684;28;20501;-77
2022/04/15 02:48:08;;;;;;;10.70;7.80;;;8.80;99.90;;;;;;5100494;28;20472;-77
2022/04/15 02:50:39;;;;;;;10.03;7.77;;;8.80;99.90;;;;;;5080855;28;20456;-77
2022/04/15 02:53:07;;;;;;;10.40;8.57;;;8.80;99.90;;;;;;5096464;28;20497;-77
2022/04/15 02:55:35;;;;;;;13.40;8.80;;;8.80;99.90;;;;;;5095988;28;20520;-77
2022/04/15 02:58:04;;;;;;;12.83;9.90;;;8.80;99.90;;;;;;5097460;28;20876;-77
2022/04/15 03:00:32;;;;;;;12.20;9.90;;;8.70;99.90;;;;;;5095265;28;20452;-77
2022/04/15 03:03:00;;;;;;;13.77;10.50;;;8.70;99.90;;;;;;5096714;28;20489;-77
2022/04/15 03:05:30;;;;;;;13.90;12.50;;;8.70;99.90;;;;;;5096424;28;20541;-77
2022/04/15 03:07:59;;;;;;;13.60;11.43;;;8.70;99.90;;;;;;5095066;28;20468;-77
2022/04/15 03:10:27;;;;;;;14.33;12.00;;;8.70;99.90;;;;;;5057443;28;20481;-77
2022/04/15 03:12:55;;;;;;;15.23;11.43;;;8.70;99.90;;;;;;5056270;28;20851;-77
2022/04/15 03:15:24;;;;;;;14.10;12.60;;;8.70;99.90;;;;;;5054689;28;20477;-77
2022/04/15 03:17:52;;;;;;;16.40;13.20;;;8.70;99.90;;;;;;5065630;28;20449;-77
2022/04/15 03:20:22;;;;;;;19.20;13.43;;;8.70;99.90;;;;;;5074715;28;20476;-77
2022/04/15 03:22:50;;;;;;;16.13;14.37;;;8.70;99.90;;;;;;5086682;28;20470;-77
2022/04/15 03:25:26;;;;;;;18.87;14.60;;;8.70;99.90;;;;;;5095998;28;20412;-77
2022/04/15 03:27:54;;;;;;;18.80;14.27;;;8.70;99.90;;;;;;5081248;28;20805;-77
2022/04/15 03:30:22;;;;;;;16.83;13.90;;;8.70;99.90;;;;;;5076141;28;20469;-77
2022/04/15 03:32:52;;;;;;;18.17;16.07;;;8.70;99.90;;;;;;5085114;28;20875;-76
2022/04/15 03:35:21;;;;;;;17.47;15.40;;;8.60;99.90;;;;;;5092920;28;20477;-77
2022/04/15 03:37:50;;;;;;;19.07;16.63;;;8.60;99.90;;;;;;5075480;28;20500;-77
2022/04/15 03:40:19;;;;;;;19.33;16.40;;;8.60;99.90;;;;;;5074248;28;20448;-77
2022/04/15 03:42:50;;;;;;;16.97;14.87;;;8.60;99.90;;;;;;5075157;28;20969;-77
2022/04/15 03:45:22;;;;;;;17.10;15.30;;;8.60;99.90;;;;;;5074248;28;20472;-76
2022/04/15 03:47:51;;;;;;;17.83;15.93;;;8.60;99.90;;;;;;5074033;28;20566;-77
2022/04/15 03:50:20;;;;;;;17.40;15.23;;;8.50;99.90;;;;;;5074022;28;20511;-76
2022/04/15 03:52:49;;;;;;;17.33;15.30;;;8.50;99.90;;;;;;5073877;28;20452;-76
2022/04/15 03:55:19;;;;;;;18.93;16.50;;;8.50;99.90;;;;;;5076176;28;20507;-76
2022/04/15 03:57:49;;;;;;;16.97;15.20;;;8.50;99.90;;;;;;5075624;28;20575;-77
2022/04/15 04:00:19;;;;;;;18.17;15.90;;;8.50;99.90;;;;;;5075381;28;20921;-77
2022/04/15 04:02:48;;;;;;;18.90;15.90;;;8.50;99.90;;;;;;5074862;28;20443;-77
2022/04/15 04:05:17;;;;;;;15.83;13.90;;;8.50;99.90;;;;;;5081665;28;20464;-77
2022/04/15 04:07:45;;;;;;;17.27;14.80;;;8.50;99.90;;;;;;5094381;28;20549;-77
2022/04/15 04:10:14;;;;;;;16.23;13.73;;;8.50;99.90;;;;;;5094162;28;21018;-77
2022/04/15 04:12:43;;;;;;;19.57;14.30;;;8.50;99.90;;;;;;5093954;28;20439;-77
2022/04/15 04:15:14;;;;;;;16.30;14.23;;;8.50;99.90;;;;;;5095217;28;20467;-77
2022/04/15 04:17:42;;;;;;;18.20;14.57;;;8.50;99.90;;;;;;5093928;28;20478;-77
2022/04/15 04:20:12;;;;;;;18.00;14.37;;;8.50;99.90;;;;;;5093643;28;20480;-77
2022/04/15 04:22:41;;;;;;;15.37;13.30;;;8.50;99.90;;;;;;5093697;28;20448;-77
2022/04/15 04:25:10;;;;;;;18.57;13.80;;;8.50;99.90;;;;;;5091726;28;20440;-77
2022/04/15 04:27:39;;;;;;;18.17;12.80;;;8.50;99.90;;;;;;5086513;28;20482;-77
2022/04/15 04:30:09;;;;;;;18.20;13.97;;;8.50;99.90;;;;;;5093435;28;20453;-77
2022/04/15 04:32:38;;;;;;;18.30;12.97;;;8.50;99.90;;;;;;5054815;28;20422;-77
2022/04/15 04:35:08;;;;;;;15.40;12.60;;;8.50;99.90;;;;;;5054633;28;20446;-77
2022/04/15 04:37:36;;;;;;;16.37;13.00;;;8.50;99.90;;;;;;5052985;28;20502;-77
2022/04/15 04:40:05;;;;;;;18.70;12.50;;;8.50;99.90;;;;;;5053272;28;20457;-77
2022/04/15 04:42:33;;;;;;;13.80;11.93;;;8.50;99.90;;;;;;5055370;28;20947;-77
2022/04/15 04:45:01;;;;;;;15.63;11.93;;;8.40;99.90;;;;;;5054683;28;20464;-77
2022/04/15 04:47:30;;;;;;;16.10;12.47;;;8.40;99.90;;;;;;5053428;28;20462;-77
2022/04/15 04:50:01;;;;;;;16.83;12.63;;;8.40;99.90;;;;;;5061294;28;20455;-77
2022/04/15 04:52:29;;;;;;;17.47;12.93;;;8.40;99.90;;;;;;5074401;28;20435;-77
2022/04/15 04:54:57;;;;;;;13.33;11.53;;;8.40;99.90;;;;;;5073419;28;21020;-77
2022/04/15 04:57:25;;;;;;;14.07;11.50;;;8.40;99.90;;;;;;5077413;28;20994;-77
2022/04/15 04:59:53;;;;;;;17.53;11.40;;;8.40;99.90;;;;;;5094702;28;20483;-77
2022/04/15 05:02:21;;;;;;;13.70;11.67;;;8.40;99.90;;;;;;5094667;28;20428;-77
2022/04/15 05:04:50;;;;;;;13.20;11.07;;;8.40;99.90;;;;;;5087403;28;20950;-77
2022/04/15 05:07:19;;;;;;;13.87;11.40;;;8.40;99.90;;;;;;5073006;28;21103;-77
2022/04/15 05:09:47;;;;;;;14.13;11.17;;;8.40;99.90;;;;;;5072949;28;20449;-77
2022/04/15 05:12:16;;;;;;;13.80;10.83;;;8.40;99.90;;;;;;5078028;28;20534;-77
2022/04/15 05:14:44;;;;;;;12.30;10.37;;;8.40;99.90;;;;;;5079108;28;20453;-77
2022/04/15 05:17:12;;;;;;;14.73;10.63;;;8.40;99.90;;;;;;5078201;28;20521;-77
2022/04/15 05:19:44;;;;;;;12.93;10.30;;;8.40;99.90;;;;;;5091058;28;20969;-77
2022/04/15 05:22:13;;;;;;;12.13;10.00;;;8.40;99.90;;;;;;5073095;28;20463;-77
2022/04/15 05:24:42;;;;;;;13.17;10.90;;;8.40;99.90;;;;;;5072581;28;20459;-77
2022/04/15 05:27:10;;;;;;;15.63;11.30;;;8.50;99.90;;;;;;5072486;28;20460;-77
2022/04/15 05:29:38;;;;;;;15.00;10.43;;;8.50;99.90;;;;;;5073118;28;20914;-78
2022/04/15 05:32:07;;;;;;;13.93;11.17;;;8.50;99.90;;;;;;5073473;28;20452;-79
2022/04/15 05:34:35;;;;;;;13.00;11.30;;;8.50;99.90;;;;;;5074671;28;20480;-78
2022/04/15 05:37:03;;;;;;;13.77;12.33;;;8.50;99.90;;;;;;5077692;28;20554;-78
2022/04/15 05:39:32;;;;;;;14.03;12.07;;;8.50;99.90;;;;;;5074500;28;20445;-78
2022/04/15 05:42:01;;;;;;;16.00;12.70;;;8.50;99.90;;;;;;5072610;28;20464;-77
2022/04/15 05:44:29;;;;;;;15.40;12.90;;;8.50;99.90;;;;;;5074476;28;20473;-78
2022/04/15 05:46:58;;;;;;;16.27;13.90;;;8.50;99.90;;;;;;5073421;28;20530;-78
2022/04/15 05:49:26;;;;;;;20.77;15.37;;;8.50;99.90;;;;;;5074605;28;20451;-78
2022/04/15 05:51:54;;;;;;;18.40;14.73;;;8.50;99.90;;;;;;5074709;28;20455;-78
2022/04/15 05:54:22;;;;;;;22.27;15.33;;;8.50;99.90;;;;;;5072952;28;21022;-78
2022/04/15 05:56:50;;;;;;;17.33;14.00;;;8.50;99.90;;;;;;5073876;28;20474;-78
2022/04/15 05:59:20;;;;;;;20.10;15.63;;;8.50;99.90;;;;;;5081117;28;20514;-78
2022/04/15 06:01:50;;;;;;;18.97;14.00;;;8.50;99.90;;;;;;5093301;28;20456;-77
2022/04/15 06:04:18;;;;;;;21.13;15.73;;;8.50;99.90;;;;;;5092988;28;20458;-77
2022/04/15 06:06:47;;;;;;;20.97;15.53;;;8.50;99.90;;;;;;5092921;28;20471;-78
2022/04/15 06:09:15;;;;;;;21.47;16.83;;;8.50;99.90;;;;;;5093333;28;20508;-78
2022/04/15 06:11:44;;;;;;;21.13;16.00;;;8.50;99.90;;;;;;5092990;28;20543;-77
2022/04/15 06:14:12;;;;;;;22.07;17.73;;;8.50;99.90;;;;;;5092393;28;20539;-77
2022/04/15 06:16:43;;;;;;;23.63;18.60;;;8.50;99.90;;;;;;5092175;28;20525;-77
2022/04/15 06:19:13;;;;;;;22.83;19.13;;;8.50;99.90;;;;;;5097307;28;20523;-78
2022/04/15 06:21:51;;;;;;;26.73;20.77;;;8.50;99.90;;;;;;5098793;28;20416;-78
2022/04/15 06:24:19;;;;;;;27.27;21.47;;;8.50;99.90;;;;;;5092172;28;20947;-78
2022/04/15 06:26:49;;;;;;;26.37;21.07;;;8.50;99.90;;;;;;5083913;28;20515;-77
2022/04/15 06:29:17;;;;;;;25.07;21.27;;;8.50;99.90;;;;;;5080198;28;20443;-76
2022/04/15 06:31:48;;;;;;;29.20;22.03;;;8.50;99.90;;;;;;5075858;28;20523;-78
2022/04/15 06:34:16;;;;;;;27.07;20.60;;;8.50;99.90;;;;;;5085414;28;20443;-78
2022/04/15 06:36:44;;;;;;;28.37;21.23;;;8.50;99.90;;;;;;5096748;28;20476;-76
2022/04/15 06:39:12;;;;;;;30.53;23.77;;;8.50;99.90;;;;;;5082264;28;20442;-77
2022/04/15 06:41:40;;;;;;;24.90;21.27;;;8.50;99.90;;;;;;5090052;28;20444;-78
2022/04/15 06:44:09;;;;;;;25.87;21.50;;;8.50;99.90;;;;;;5096410;28;20547;-76
2022/04/15 06:46:37;;;;;;;25.57;20.73;;;8.50;99.90;;;;;;5095809;28;20827;-76
2022/04/15 06:49:08;;;;;;;24.93;18.20;;;8.40;99.90;;;;;;5079587;28;20455;-77
2022/04/15 06:51:36;;;;;;;24.97;20.53;;;8.40;99.90;;;;;;5077193;28;20557;-78
2022/04/15 06:54:07;;;;;;;24.37;20.83;;;8.40;99.90;;;;;;5085216;28;20455;-78
2022/04/15 06:56:35;;;;;;;25.30;20.50;;;8.50;99.90;;;;;;5098396;28;20483;-79
2022/04/15 06:59:03;;;;;;;25.43;20.40;;;8.50;99.90;;;;;;5097642;28;20448;-78
2022/04/15 07:01:32;;;;;;;21.83;19.43;;;8.50;99.90;;;;;;5073612;28;20456;-77
2022/04/15 07:04:02;;;;;;;23.63;18.70;;;8.50;99.90;;;;;;5086721;28;20470;-77
2022/04/15 07:06:32;;;;;;;20.30;18.10;;;8.50;99.90;;;;;;5074962;28;20461;-77
2022/04/15 07:09:00;;;;;;;24.33;18.90;;;8.50;99.90;;;;;;5075218;28;20456;-77
2022/04/15 07:11:28;;;;;;;23.70;18.50;;;8.50;99.90;;;;;;5074985;28;20479;-76
2022/04/15 07:13:56;;;;;;;24.80;18.50;;;8.50;99.90;;;;;;5075063;28;20449;-78
2022/04/15 07:16:24;;;;;;;22.87;18.93;;;8.50;99.90;;;;;;5075739;28;20472;-77
2022/04/15 07:18:55;;;;;;;22.53;18.53;;;8.50;99.90;;;;;;5093237;28;20501;-77
2022/04/15 07:21:23;;;;;;;20.80;18.60;;;8.50;99.90;;;;;;5095460;28;20439;-77
2022/04/15 07:23:53;;;;;;;22.70;20.30;;;8.50;99.90;;;;;;5090015;28;20451;-78
2022/04/15 07:26:21;;;;;;;30.17;19.60;;;8.50;99.90;;;;;;5096782;28;21012;-79
2022/04/15 07:28:49;;;;;;;23.97;18.80;;;8.40;99.90;;;;;;5098604;28;20447;-76
2022/04/15 07:31:17;;;;;;;28.70;21.00;;;8.40;99.90;;;;;;5095764;28;20995;-77
2022/04/15 07:33:46;;;;;;;23.87;19.03;;;8.40;99.90;;;;;;5092865;28;20449;-77
2022/04/15 07:36:42;;;;;;;21.20;18.50;;;8.50;99.90;;;;;;5075163;28;20467;-78
2022/04/15 07:39:14;;;;;;;21.00;18.30;;;8.50;99.90;;;;;;5075106;28;20456;-78
2022/04/15 07:41:45;;;;;;;21.33;18.33;;;8.50;99.90;;;;;;5077806;28;20449;-78
2022/04/15 07:44:14;;;;;;;21.00;17.63;;;8.60;99.90;;;;;;5092532;28;20499;-79
2022/04/15 07:46:44;;;;;;;28.03;19.20;;;8.60;99.90;;;;;;5088666;28;20481;-79
2022/04/15 07:49:12;;;;;;;23.93;17.70;;;8.70;99.90;;;;;;5077026;28;20433;-77
2022/04/15 07:51:41;;;;;;;21.10;17.67;;;8.70;99.90;;;;;;5076244;28;20460;-77
2022/04/15 07:54:09;;;;;;;24.53;19.10;;;8.70;99.90;;;;;;5074757;28;20543;-77
2022/04/15 07:56:39;;;;;;;21.63;17.20;;;8.80;99.90;;;;;;5074543;28;21112;-77
2022/04/15 07:59:08;;;;;;;23.90;19.30;;;8.80;99.90;;;;;;5075968;28;20835;-77
2022/04/15 08:01:38;;;;;;;23.50;18.10;;;8.80;99.90;;;;;;5074420;28;20452;-77
2022/04/15 08:04:07;;;;;;;21.13;17.87;;;8.80;99.90;;;;;;5075826;28;20502;-78
2022/04/15 08:06:35;;;;;;;23.07;17.40;;;8.80;99.90;;;;;;5076042;28;20479;-78
2022/04/15 08:09:03;;;;;;;21.37;17.17;;;8.80;99.90;;;;;;5079321;28;20453;-79
2022/04/15 08:11:31;;;;;;;21.20;17.20;;;8.80;99.90;;;;;;5079293;28;20545;-79
2022/04/15 08:14:01;;;;;;;23.70;16.50;;;8.80;99.90;;;;;;5090515;28;20937;-77
2022/04/15 08:16:29;;;;;;;24.90;17.60;;;8.80;99.90;;;;;;5098058;28;20475;-79
2022/04/15 08:18:57;;;;;;;20.53;16.10;;;8.80;99.90;;;;;;5100407;28;20471;-78
2022/04/15 08:21:25;;;;;;;21.90;16.23;;;8.80;99.90;;;;;;5095599;28;20452;-78
2022/04/15 08:23:53;;;;;;;18.70;15.93;;;8.80;99.90;;;;;;5075571;28;20461;-78
2022/04/15 08:26:21;;;;;;;20.47;15.90;;;8.80;99.90;;;;;;5080362;28;20465;-79
2022/04/15 08:28:49;;;;;;;22.87;15.70;;;8.80;99.90;;;;;;5079186;28;20809;-79
2022/04/15 08:31:19;;;;;;;21.47;17.30;;;8.80;99.90;;;;;;5081760;28;20441;-79
2022/04/15 08:33:47;;;;;;;23.40;17.90;;;8.90;99.90;;;;;;5076624;28;20457;-78
2022/04/15 08:36:16;;;;;;;20.87;17.77;;;8.90;99.90;;;;;;5077626;28;20833;-79
2022/04/15 08:38:44;;;;;;;23.90;19.10;;;8.90;99.90;;;;;;5078744;28;20465;-78
2022/04/15 08:41:13;;;;;;;21.13;17.07;;;8.90;99.90;;;;;;5076950;28;20445;-78
2022/04/15 08:43:43;;;;;;;21.40;17.40;;;9.00;99.90;;;;;;5080255;28;20457;-80
2022/04/15 08:46:13;;;;;;;21.97;17.73;;;9.00;99.90;;;;;;5078052;28;21028;-79
2022/04/15 08:48:44;;;;;;;22.13;17.97;;;9.00;99.90;;;;;;5079184;28;20517;-80
2022/04/15 08:51:14;;;;;;;20.57;16.60;;;9.00;99.90;;;;;;5080372;28;20441;-80
2022/04/15 08:53:44;;;;;;;24.10;17.60;;;9.00;99.90;;;;;;5078885;28;20449;-79
2022/04/15 08:56:13;;;;;;;23.00;17.97;;;9.00;99.90;;;;;;5078469;28;20514;-78
2022/04/15 08:58:41;;;;;;;20.27;17.80;;;9.10;99.90;;;;;;5077972;28;20483;-79
2022/04/15 09:01:09;;;;;;;24.67;17.83;;;9.10;99.90;;;;;;5079289;28;20531;-78
2022/04/15 09:03:37;;;;;;;20.77;17.17;;;9.10;99.90;;;;;;5075555;28;20953;-77
2022/04/15 09:06:15;;;;;;;21.23;16.27;;;9.10;99.90;;;;;;5083884;28;20452;-78
2022/04/15 09:08:59;;;;;;;22.80;19.90;;;9.10;99.90;;;;;;5096504;28;20427;-78
2022/04/15 09:11:31;;;;;;;22.53;20.10;;;9.10;99.90;;;;;;5095597;28;20483;-79
2022/04/15 09:14:03;;;;;;;24.80;21.17;;;9.10;99.90;;;;;;5098697;28;20448;-79
2022/04/15 09:16:32;;;;;;;22.40;18.63;;;9.10;99.90;;;;;;5097015;28;20525;-79
2022/04/15 09:19:00;;;;;;;28.30;20.53;;;9.00;99.90;;;;;;5094301;28;20486;-80
2022/04/15 09:21:30;;;;;;;23.73;19.30;;;9.00;99.90;;;;;;5077699;28;20507;-81
2022/04/15 09:23:58;;;;;;;23.33;20.73;;;9.00;99.90;;;;;;5093896;28;20483;-81
2022/04/15 09:26:27;;;;;;;23.93;20.87;;;9.00;99.90;;;;;;5095196;28;20480;-80
2022/04/15 09:28:56;;;;;;;24.77;21.40;;;9.00;99.90;;;;;;5095923;28;20436;-81
2022/04/15 09:31:25;;;;;;;23.93;20.77;;;9.00;99.90;;;;;;5095759;28;20498;-79
2022/04/15 09:33:55;;;;;;;23.27;20.57;;;9.00;99.90;;;;;;5096282;28;20809;-80
2022/04/15 09:36:30;;;;;;;22.87;20.47;;;9.00;99.90;;;;;;5095671;28;20471;-80
2022/04/15 09:39:01;;;;;;;24.37;21.20;;;9.00;99.90;;;;;;5096548;28;20863;-80
2022/04/15 09:41:30;;;;;;;24.43;21.67;;;9.10;99.90;;;;;;5095656;28;20447;-79
2022/04/15 09:44:00;;;;;;;22.87;20.37;;;9.10;99.90;;;;;;5076701;28;20501;-79
2022/04/15 09:46:30;;;;;;;23.90;21.17;;;9.10;99.90;;;;;;5091918;28;21063;-80
2022/04/15 09:49:02;;;;;;;25.70;20.40;;;9.10;99.90;;;;;;5090565;28;20446;-78
2022/04/15 09:51:38;;;;;;;22.77;20.40;;;9.10;99.90;;;;;;5077345;28;20421;-79
2022/04/15 09:54:08;;;;;;;23.13;20.00;;;9.10;99.90;;;;;;5081605;28;20431;-79
2022/04/15 09:56:39;;;;;;;23.90;18.77;;;9.10;99.90;;;;;;5081184;28;20515;-79
2022/04/15 09:59:11;;;;;;;24.07;18.30;;;9.10;99.90;;;;;;5079023;28;20461;-79
2022/04/15 10:01:43;;;;;;;26.53;19.33;;;9.10;99.90;;;;;;5079934;28;20473;-79
2022/04/15 10:04:12;;;;;;;22.77;19.63;;;9.10;99.90;;;;;;5079259;28;20456;-78
2022/04/15 10:06:43;;;;;;;24.80;22.00;;;9.10;99.90;;;;;;5085170;28;20472;-78
2022/04/15 10:09:12;;;;;;;28.60;25.23;;;9.10;99.90;;;;;;5100352;28;20782;-78
2022/04/15 10:11:42;;;;;;;26.73;23.57;;;9.10;99.90;;;;;;5099230;28;20452;-79
2022/04/15 10:14:11;;;;;;;27.23;21.53;;;9.10;99.90;;;;;;5099321;28;20538;-79
2022/04/15 10:16:40;;;;;;;27.77;21.20;;;9.10;99.90;;;;;;5098909;28;20539;-78
2022/04/15 10:19:09;;;;;;;26.10;21.27;;;9.10;99.90;;;;;;5098979;28;21063;-79
2022/04/15 10:21:44;;;;;;;24.53;22.00;;;9.20;99.90;;;;;;5098259;28;20865;-78
2022/04/15 10:24:26;;;;;;;24.33;21.57;;;9.10;99.90;;;;;;5098390;28;20451;-78
2022/04/15 10:27:00;;;;;;;22.00;19.00;;;9.10;99.90;;;;;;5098197;28;20543;-77
2022/04/15 10:29:28;;;;;;;21.63;19.27;;;9.20;99.90;;;;;;5091688;28;20479;-79
2022/04/15 10:32:11;;;;;;;24.97;18.67;;;9.20;99.90;;;;;;5082988;28;20456;-78
2022/04/15 10:34:46;;;;;;;21.60;18.70;;;9.20;99.90;;;;;;5093977;28;20450;-78
2022/04/15 10:37:17;;;;;;;21.90;18.77;;;9.30;99.90;;;;;;5101349;28;20504;-80
2022/04/15 10:39:47;;;;;;;22.87;20.20;;;9.30;99.90;;;;;;5099830;28;20487;-80
2022/04/15 10:42:20;;;;;;;22.70;18.53;;;9.30;99.90;;;;;;5099514;28;20440;-80
2022/04/15 10:44:48;;;;;;;22.53;19.80;;;9.30;99.90;;;;;;5099027;28;20491;-80
2022/04/15 10:47:29;;;;;;;24.57;17.97;;;9.30;99.90;;;;;;5100336;28;20540;-80
2022/04/15 10:50:03;;;;;;;22.53;20.13;;;9.40;99.90;;;;;;5087722;28;20483;-80
2022/04/15 10:52:34;;;;;;;22.90;19.83;;;9.50;99.90;;;;;;5077983;28;20437;-78
2022/04/15 10:55:08;;;;;;;22.70;19.17;;;9.50;99.90;;;;;;5076973;28;20445;-77
2022/04/15 10:57:37;;;;;;;24.97;20.50;;;9.50;99.90;;;;;;5076592;28;20487;-80
2022/04/15 11:03:02;;;;;;;23.30;19.20;;;9.60;99.90;;;;;;5051932;28;20480;-79
2022/04/15 11:05:55;;;;;;;18.90;16.90;;;9.80;99.90;;;;;;5086259;28;20448;-78
2022/04/15 11:08:29;;;;;;;21.60;19.17;;;9.90;99.90;;;;;;5098251;28;20450;-78
2022/04/15 11:11:05;;;;;;;22.20;19.43;;;10.00;99.90;;;;;;5099241;28;20458;-78
2022/04/15 11:13:49;;;;;;;23.47;20.87;;;10.10;99.90;;;;;;5102717;28;20831;-80
2022/04/15 11:16:18;;;;;;;23.33;19.10;;;10.20;99.90;;;;;;5075932;28;20500;-79
2022/04/15 11:18:50;;;;;;;21.90;19.57;;;10.30;99.90;;;;;;5081092;28;20481;-80
2022/04/15 11:21:27;;;;;;;24.23;21.63;;;10.30;99.90;;;;;;5098448;28;20451;-79
2022/04/15 11:23:58;;;;;;;25.90;23.20;;;10.40;99.90;;;;;;5098646;28;20524;-78
2022/04/15 11:26:27;;;;;;;25.70;23.13;;;10.40;99.90;;;;;;5093343;28;20468;-78
2022/04/15 11:28:57;;;;;;;26.30;23.60;;;10.40;99.90;;;;;;5096971;28;20455;-78
2022/04/15 11:31:27;;;;;;;25.20;22.00;;;10.40;99.90;;;;;;5076184;28;20510;-78
2022/04/15 11:34:02;;;;;;;22.67;20.27;;;10.40;99.90;;;;;;5087055;28;20449;-78
2022/04/15 11:36:32;;;;;;;24.30;20.27;;;10.50;99.90;;;;;;5077922;28;20525;-78
2022/04/15 11:39:04;;;;;;;19.43;17.43;;;10.50;99.90;;;;;;5076592;28;20540;-78
2022/04/15 11:41:34;;;;;;;19.10;17.03;;;10.50;99.90;;;;;;5096295;28;20933;-79
2022/04/15 11:44:04;;;;;;;19.50;17.23;;;10.60;99.90;;;;;;5096777;28;20484;-78
2022/04/15 11:46:45;;;;;;;22.23;19.93;;;10.60;99.90;;;;;;5088634;28;20473;-79
2022/04/15 11:49:15;;;;;;;19.67;17.70;;;10.70;99.90;;;;;;5098284;28;20511;-79
2022/04/15 11:51:45;;;;;;;21.90;18.03;;;10.70;99.90;;;;;;5096202;28;20432;-79
2022/04/15 11:54:15;;;;;;;23.13;19.07;;;10.70;99.90;;;;;;5097205;28;20552;-80
2022/04/15 11:56:43;;;;;;;19.37;17.37;;;10.70;99.90;;;;;;5097599;28;20478;-80
2022/04/15 11:59:12;;;;;;;21.73;17.87;;;10.60;99.90;;;;;;5097674;28;20511;-80
2022/04/15 12:01:40;;;;;;;19.60;15.70;;;10.60;99.90;;;;;;5083774;28;20448;-80
2022/04/15 12:04:09;;;;;;;19.33;16.63;;;10.70;99.90;;;;;;5076416;28;20449;-80
2022/04/15 12:06:40;;;;;;;20.70;18.40;;;10.70;99.90;;;;;;5076040;28;20461;-79
2022/04/15 12:09:10;;;;;;;21.07;18.83;;;10.70;99.90;;;;;;5069696;28;20446;-78
2022/04/15 12:12:01;;;;;;;19.90;17.80;;;10.60;99.90;;;;;;5058085;28;20480;-78
2022/04/15 12:14:37;;;;;;;19.70;17.60;;;10.70;99.90;;;;;;5075576;28;20463;-78
2022/04/15 12:17:07;;;;;;;18.97;16.93;;;10.70;99.90;;;;;;5077440;28;20567;-78
2022/04/15 12:19:35;;;;;;;21.77;16.73;;;10.80;99.90;;;;;;5095059;28;20468;-78
2022/04/15 12:22:04;;;;;;;18.63;16.60;;;10.80;99.90;;;;;;5095122;28;20531;-78
2022/04/15 12:24:33;;;;;;;19.47;17.17;;;10.80;99.90;;;;;;5097429;28;20455;-79
2022/04/15 12:27:04;;;;;;;18.93;16.10;;;10.90;99.90;;;;;;5096593;28;20466;-79
2022/04/15 12:29:47;;;;;;;19.50;16.60;;;10.90;99.90;;;;;;5096397;28;20467;-79
2022/04/15 12:32:21;;;;;;;19.00;17.00;;;11.00;99.90;;;;;;5096499;28;20494;-79
2022/04/15 12:35:10;;;;;;;22.13;17.40;;;11.00;99.90;;;;;;5096508;28;20848;-80
2022/04/15 12:37:41;;;;;;;20.10;17.47;;;11.00;99.90;;;;;;5096885;28;20551;-80
2022/04/15 12:40:29;;;;;;;22.57;17.87;;;11.00;99.90;;;;;;5080560;28;20462;-79
2022/04/15 12:43:11;;;;;;;17.63;15.83;;;11.00;99.90;;;;;;5068796;28;20453;-78
2022/04/15 12:45:49;;;;;;;20.00;17.90;;;11.00;99.90;;;;;;5092829;28;20462;-78
2022/04/15 12:48:18;;;;;;;21.23;18.97;;;11.10;99.90;;;;;;5096650;28;20971;-78
2022/04/15 12:50:47;;;;;;;21.53;18.40;;;11.20;99.90;;;;;;5094683;28;20489;-77
2022/04/15 12:53:17;;;;;;;21.83;18.27;;;11.20;99.90;;;;;;5095264;28;20444;-78
2022/04/15 12:55:46;;;;;;;21.80;17.50;;;11.30;99.90;;;;;;5094235;28;20444;-77